This is the latest recevied weather packets stored in our database for station/object WE0DX-1. If no packets are shown the sender has not sent any weather packets the latest 10 day(s).
| Time | Temp. | Humidity | Pressure | Rain* | Wind** | Luminosity | Snow |
|---|---|---|---|---|---|---|---|
| 1777780270 | 11.67° C | 48% | 1017.3 hPa | 0 mm | - | 0 W/m² | - |
| 1777779967 | 11.67° C | 49% | 1017.4 hPa | 0 mm | - | 0 W/m² | - |
| 1777779664 | 11.67° C | 48% | 1017.7 hPa | 0 mm | - | 0 W/m² | - |
| 1777779360 | 12.22° C | 48% | 1017.6 hPa | 0 mm | - | 0 W/m² | - |
| 1777779059 | 12.22° C | 48% | 1017.6 hPa | 0 mm | - | 0 W/m² | - |
| 1777778757 | 12.22° C | 47% | 1017.6 hPa | 0 mm | - | 0 W/m² | - |
| 1777778454 | 12.22° C | 47% | 1017.4 hPa | 0 mm | - | 0 W/m² | - |
| 1777778153 | 12.22° C | 46% | 1017.6 hPa | 0 mm | - | 0 W/m² | - |
| 1777777850 | 12.22° C | 46% | 1017.7 hPa | 0 mm | - | 0 W/m² | - |
| 1777777545 | 12.78° C | 46% | 1017.9 hPa | 0 mm | - | 0 W/m² | - |
| 1777777243 | 12.78° C | 45% | 1017.8 hPa | 0 mm | - | 0 W/m² | - |
| 1777776940 | 12.78° C | 45% | 1017.5 hPa | 0 mm | - | 0 W/m² | - |
| 1777776638 | 12.78° C | 45% | 1017.6 hPa | 0 mm | - | 0 W/m² | - |
| 1777776333 | 12.78° C | 45% | 1017.7 hPa | 0 mm | - | 0 W/m² | - |
| 1777776031 | 12.78° C | 45% | 1017.7 hPa | 0 mm | - | 0 W/m² | - |
| 1777775727 | 12.78° C | 45% | 1017.8 hPa | 0 mm | - | 0 W/m² | - |
| 1777775425 | 12.78° C | 44% | 1017.6 hPa | 0 mm | - | 0 W/m² | - |
| 1777775121 | 12.78° C | 44% | 1017.8 hPa | 0 mm | - | 0 W/m² | - |
| 1777774816 | 13.33° C | 43% | 1017.7 hPa | 0 mm | - | 0 W/m² | - |
| 1777774513 | 13.33° C | 43% | 1017.8 hPa | 0 mm | - | 0 W/m² | - |
| 1777772392 | 14.44° C | 39% | 1017.7 hPa | 0 mm | - | 0 W/m² | - |
| 1777767847 | 17.22° C | 34% | 1017.7 hPa | 0 mm | - | 15 W/m² | - |
| 1777767543 | 17.22° C | 32% | 1017.6 hPa | 0 mm | - | 16 W/m² | - |
| 1777765422 | 17.78° C | 31% | 1017.8 hPa | 0 mm | - | 29 W/m² | - |
| 1777764814 | 17.22° C | 31% | 1018 hPa | 0 mm | - | 25 W/m² | - |
* Rain latest hour (hover to see other rain measurements)
** Current wind speed in m/s (hover to see current wind gust speed)